sensor_id;sensor_type;location;lat;lon;timestamp;P1;durP1;ratioP1;P2;durP2;ratioP2
18136;SDS011;9194;42.632;23.298;2022-11-15T00:01:59;19.77;;;9.63;;
18136;SDS011;9194;42.632;23.298;2022-11-15T00:07:18;21.43;;;10.23;;
18136;SDS011;9194;42.632;23.298;2022-11-15T00:12:38;22.20;;;10.53;;
18136;SDS011;9194;42.632;23.298;2022-11-15T00:17:59;22.70;;;11.23;;
18136;SDS011;9194;42.632;23.298;2022-11-15T00:23:18;25.90;;;11.47;;
18136;SDS011;9194;42.632;23.298;2022-11-15T00:28:38;21.03;;;10.53;;
18136;SDS011;9194;42.632;23.298;2022-11-15T00:33:58;21.67;;;10.23;;
18136;SDS011;9194;42.632;23.298;2022-11-15T00:39:18;14.97;;;7.23;;
18136;SDS011;9194;42.632;23.298;2022-11-15T00:44:38;7.47;;;5.10;;
18136;SDS011;9194;42.632;23.298;2022-11-15T00:49:58;9.23;;;5.47;;
18136;SDS011;9194;42.632;23.298;2022-11-15T00:55:18;10.27;;;5.73;;
18136;SDS011;9194;42.632;23.298;2022-11-15T01:00:38;11.03;;;5.27;;
18136;SDS011;9194;42.632;23.298;2022-11-15T01:06:01;10.57;;;6.37;;
18136;SDS011;9194;42.632;23.298;2022-11-15T01:11:21;15.77;;;7.07;;
18136;SDS011;9194;42.632;23.298;2022-11-15T01:16:41;17.20;;;7.20;;
18136;SDS011;9194;42.632;23.298;2022-11-15T01:22:01;17.20;;;7.50;;
18136;SDS011;9194;42.632;23.298;2022-11-15T01:27:20;13.13;;;6.77;;
18136;SDS011;9194;42.632;23.298;2022-11-15T01:32:40;16.13;;;8.10;;
18136;SDS011;9194;42.632;23.298;2022-11-15T01:38:00;22.00;;;9.23;;
18136;SDS011;9194;42.632;23.298;2022-11-15T01:48:42;19.63;;;8.97;;
18136;SDS011;9194;42.632;23.298;2022-11-15T01:54:04;17.30;;;8.10;;
18136;SDS011;9194;42.632;23.298;2022-11-15T01:59:31;17.43;;;8.03;;
18136;SDS011;9194;42.632;23.298;2022-11-15T02:04:51;16.67;;;7.47;;
18136;SDS011;9194;42.632;23.298;2022-11-15T02:10:17;16.83;;;8.73;;
18136;SDS011;9194;42.632;23.298;2022-11-15T02:27:31;26.70;;;11.27;;
18136;SDS011;9194;42.632;23.298;2022-11-15T02:38:29;35.93;;;12.97;;
18136;SDS011;9194;42.632;23.298;2022-11-15T02:43:55;30.70;;;14.07;;
18136;SDS011;9194;42.632;23.298;2022-11-15T02:49:20;30.30;;;14.13;;
18136;SDS011;9194;42.632;23.298;2022-11-15T02:54:42;28.07;;;11.80;;
18136;SDS011;9194;42.632;23.298;2022-11-15T03:00:06;28.47;;;12.23;;
18136;SDS011;9194;42.632;23.298;2022-11-15T03:11:08;25.93;;;11.33;;
18136;SDS011;9194;42.632;23.298;2022-11-15T03:21:55;33.73;;;13.63;;
18136;SDS011;9194;42.632;23.298;2022-11-15T03:27:21;33.10;;;14.47;;
18136;SDS011;9194;42.632;23.298;2022-11-15T03:32:48;36.07;;;15.10;;
18136;SDS011;9194;42.632;23.298;2022-11-15T03:49:51;37.47;;;14.53;;
18136;SDS011;9194;42.632;23.298;2022-11-15T03:55:11;31.83;;;14.13;;
18136;SDS011;9194;42.632;23.298;2022-11-15T04:00:34;40.23;;;15.80;;
18136;SDS011;9194;42.632;23.298;2022-11-15T04:05:54;34.10;;;13.77;;
18136;SDS011;9194;42.632;23.298;2022-11-15T04:11:14;35.73;;;11.47;;
18136;SDS011;9194;42.632;23.298;2022-11-15T04:16:34;23.47;;;10.37;;
18136;SDS011;9194;42.632;23.298;2022-11-15T04:21:53;23.73;;;11.00;;
18136;SDS011;9194;42.632;23.298;2022-11-15T04:27:32;27.00;;;11.47;;
18136;SDS011;9194;42.632;23.298;2022-11-15T04:32:52;27.97;;;12.67;;
18136;SDS011;9194;42.632;23.298;2022-11-15T04:38:11;30.57;;;14.33;;
18136;SDS011;9194;42.632;23.298;2022-11-15T04:43:31;35.50;;;14.97;;
18136;SDS011;9194;42.632;23.298;2022-11-15T04:48:51;34.37;;;15.47;;
18136;SDS011;9194;42.632;23.298;2022-11-15T04:54:12;38.93;;;16.43;;
18136;SDS011;9194;42.632;23.298;2022-11-15T04:59:31;40.97;;;16.63;;
18136;SDS011;9194;42.632;23.298;2022-11-15T05:04:51;38.80;;;16.73;;
18136;SDS011;9194;42.632;23.298;2022-11-15T05:10:11;40.07;;;16.17;;
18136;SDS011;9194;42.632;23.298;2022-11-15T05:15:31;41.60;;;16.27;;
18136;SDS011;9194;42.632;23.298;2022-11-15T05:20:51;57.70;;;19.60;;
18136;SDS011;9194;42.632;23.298;2022-11-15T05:26:10;81.87;;;21.33;;
18136;SDS011;9194;42.632;23.298;2022-11-15T05:31:30;51.03;;;20.20;;
18136;SDS011;9194;42.632;23.298;2022-11-15T05:36:50;47.97;;;19.53;;
18136;SDS011;9194;42.632;23.298;2022-11-15T05:42:14;74.37;;;21.17;;
18136;SDS011;9194;42.632;23.298;2022-11-15T05:47:35;68.43;;;20.30;;
18136;SDS011;9194;42.632;23.298;2022-11-15T05:52:57;54.60;;;19.43;;
18136;SDS011;9194;42.632;23.298;2022-11-15T05:58:18;50.17;;;19.40;;
18136;SDS011;9194;42.632;23.298;2022-11-15T06:03:39;58.70;;;20.97;;
18136;SDS011;9194;42.632;23.298;2022-11-15T06:08:59;43.90;;;19.43;;
18136;SDS011;9194;42.632;23.298;2022-11-15T06:14:19;515.97;;;29.37;;
18136;SDS011;9194;42.632;23.298;2022-11-15T06:19:39;144.40;;;23.80;;
18136;SDS011;9194;42.632;23.298;2022-11-15T06:24:59;390.17;;;28.37;;
18136;SDS011;9194;42.632;23.298;2022-11-15T06:30:19;616.10;;;34.90;;
18136;SDS011;9194;42.632;23.298;2022-11-15T06:35:39;423.33;;;28.60;;
18136;SDS011;9194;42.632;23.298;2022-11-15T06:41:07;359.87;;;28.07;;
18136;SDS011;9194;42.632;23.298;2022-11-15T06:46:29;328.57;;;25.50;;
18136;SDS011;9194;42.632;23.298;2022-11-15T06:51:49;96.20;;;22.83;;
18136;SDS011;9194;42.632;23.298;2022-11-15T06:57:08;112.03;;;22.97;;
18136;SDS011;9194;42.632;23.298;2022-11-15T07:02:28;366.43;;;27.23;;
18136;SDS011;9194;42.632;23.298;2022-11-15T07:07:52;280.63;;;25.43;;
18136;SDS011;9194;42.632;23.298;2022-11-15T07:13:12;99.83;;;24.37;;
18136;SDS011;9194;42.632;23.298;2022-11-15T07:18:36;148.47;;;29.00;;
18136;SDS011;9194;42.632;23.298;2022-11-15T07:23:57;250.97;;;30.93;;
18136;SDS011;9194;42.632;23.298;2022-11-15T07:29:17;454.50;;;34.83;;
18136;SDS011;9194;42.632;23.298;2022-11-15T07:34:37;715.37;;;38.27;;
18136;SDS011;9194;42.632;23.298;2022-11-15T07:39:57;249.80;;;28.10;;
18136;SDS011;9194;42.632;23.298;2022-11-15T07:45:17;444.67;;;31.70;;
18136;SDS011;9194;42.632;23.298;2022-11-15T07:50:39;363.53;;;29.57;;
18136;SDS011;9194;42.632;23.298;2022-11-15T07:56:00;269.93;;;28.27;;
18136;SDS011;9194;42.632;23.298;2022-11-15T08:01:20;402.73;;;33.83;;
18136;SDS011;9194;42.632;23.298;2022-11-15T08:06:40;484.40;;;34.13;;
18136;SDS011;9194;42.632;23.298;2022-11-15T08:11:59;256.80;;;32.23;;
18136;SDS011;9194;42.632;23.298;2022-11-15T08:17:19;193.07;;;30.70;;
18136;SDS011;9194;42.632;23.298;2022-11-15T08:22:39;158.27;;;29.90;;
18136;SDS011;9194;42.632;23.298;2022-11-15T08:28:04;193.50;;;34.27;;
18136;SDS011;9194;42.632;23.298;2022-11-15T08:33:25;527.03;;;41.53;;
18136;SDS011;9194;42.632;23.298;2022-11-15T08:38:45;325.13;;;39.37;;
18136;SDS011;9194;42.632;23.298;2022-11-15T08:44:04;321.27;;;40.43;;
18136;SDS011;9194;42.632;23.298;2022-11-15T08:49:24;300.83;;;39.60;;
18136;SDS011;9194;42.632;23.298;2022-11-15T08:54:44;159.10;;;38.60;;
18136;SDS011;9194;42.632;23.298;2022-11-15T09:00:04;181.87;;;38.73;;
18136;SDS011;9194;42.632;23.298;2022-11-15T09:05:25;242.50;;;44.53;;
18136;SDS011;9194;42.632;23.298;2022-11-15T09:10:45;127.00;;;40.17;;
18136;SDS011;9194;42.632;23.298;2022-11-15T09:16:05;186.93;;;43.10;;
18136;SDS011;9194;42.632;23.298;2022-11-15T09:21:26;160.40;;;48.70;;
18136;SDS011;9194;42.632;23.298;2022-11-15T09:26:45;237.83;;;50.03;;
18136;SDS011;9194;42.632;23.298;2022-11-15T09:32:09;190.73;;;50.93;;
18136;SDS011;9194;42.632;23.298;2022-11-15T09:37:31;296.50;;;54.00;;
18136;SDS011;9194;42.632;23.298;2022-11-15T10:04:38;172.93;;;52.90;;
18136;SDS011;9194;42.632;23.298;2022-11-15T10:14:48;183.97;;;53.03;;
18136;SDS011;9194;42.632;23.298;2022-11-15T10:25:45;180.60;;;55.97;;
18136;SDS011;9194;42.632;23.298;2022-11-15T10:30:30;189.97;;;58.43;;
18136;SDS011;9194;42.632;23.298;2022-11-15T10:35:39;189.67;;;57.47;;
18136;SDS011;9194;42.632;23.298;2022-11-15T10:40:42;203.43;;;57.27;;
18136;SDS011;9194;42.632;23.298;2022-11-15T10:45:48;176.37;;;56.07;;
18136;SDS011;9194;42.632;23.298;2022-11-15T10:50:51;179.17;;;57.87;;
18136;SDS011;9194;42.632;23.298;2022-11-15T10:55:55;177.13;;;55.90;;
18136;SDS011;9194;42.632;23.298;2022-11-15T11:01:16;160.80;;;53.70;;
18136;SDS011;9194;42.632;23.298;2022-11-15T11:06:20;163.03;;;53.30;;
18136;SDS011;9194;42.632;23.298;2022-11-15T11:11:22;147.27;;;49.37;;
18136;SDS011;9194;42.632;23.298;2022-11-15T11:32:22;148.80;;;53.33;;
18136;SDS011;9194;42.632;23.298;2022-11-15T11:48:12;143.60;;;50.47;;
18136;SDS011;9194;42.632;23.298;2022-11-15T11:53:25;142.87;;;48.93;;
18136;SDS011;9194;42.632;23.298;2022-11-15T11:58:35;128.37;;;47.80;;
18136;SDS011;9194;42.632;23.298;2022-11-15T12:03:43;132.57;;;46.57;;
18136;SDS011;9194;42.632;23.298;2022-11-15T12:14:33;124.47;;;47.53;;
18136;SDS011;9194;42.632;23.298;2022-11-15T12:19:40;112.57;;;44.23;;
18136;SDS011;9194;42.632;23.298;2022-11-15T12:25:05;129.00;;;45.50;;
18136;SDS011;9194;42.632;23.298;2022-11-15T12:30:11;146.17;;;48.43;;
18136;SDS011;9194;42.632;23.298;2022-11-15T12:35:56;138.77;;;47.20;;
18136;SDS011;9194;42.632;23.298;2022-11-15T12:41:18;128.23;;;47.70;;
18136;SDS011;9194;42.632;23.298;2022-11-15T12:51:22;138.40;;;45.90;;
18136;SDS011;9194;42.632;23.298;2022-11-15T12:56:43;129.10;;;44.27;;
18136;SDS011;9194;42.632;23.298;2022-11-15T13:06:57;143.53;;;45.70;;
18136;SDS011;9194;42.632;23.298;2022-11-15T13:12:07;121.67;;;44.03;;
18136;SDS011;9194;42.632;23.298;2022-11-15T13:17:56;123.90;;;44.77;;
18136;SDS011;9194;42.632;23.298;2022-11-15T13:33:22;129.90;;;47.97;;
18136;SDS011;9194;42.632;23.298;2022-11-15T13:43:29;149.53;;;48.13;;
18136;SDS011;9194;42.632;23.298;2022-11-15T13:48:35;136.67;;;48.13;;
18136;SDS011;9194;42.632;23.298;2022-11-15T13:53:37;132.60;;;44.77;;
18136;SDS011;9194;42.632;23.298;2022-11-15T13:58:42;145.80;;;46.03;;
18136;SDS011;9194;42.632;23.298;2022-11-15T14:03:59;129.23;;;46.50;;
18136;SDS011;9194;42.632;23.298;2022-11-15T14:14:13;140.80;;;47.17;;
18136;SDS011;9194;42.632;23.298;2022-11-15T14:24:21;136.90;;;47.27;;
18136;SDS011;9194;42.632;23.298;2022-11-15T14:29:29;145.97;;;45.67;;
18136;SDS011;9194;42.632;23.298;2022-11-15T14:34:34;125.10;;;45.13;;
18136;SDS011;9194;42.632;23.298;2022-11-15T14:39:35;102.20;;;40.60;;
18136;SDS011;9194;42.632;23.298;2022-11-15T14:44:36;92.50;;;32.80;;
18136;SDS011;9194;42.632;23.298;2022-11-15T14:49:37;70.27;;;25.50;;
18136;SDS011;9194;42.632;23.298;2022-11-15T14:54:39;48.53;;;20.30;;
18136;SDS011;9194;42.632;23.298;2022-11-15T14:59:41;47.67;;;16.20;;
18136;SDS011;9194;42.632;23.298;2022-11-15T15:04:42;47.10;;;16.10;;
18136;SDS011;9194;42.632;23.298;2022-11-15T15:09:44;39.80;;;16.17;;
18136;SDS011;9194;42.632;23.298;2022-11-15T15:14:46;50.60;;;18.97;;
18136;SDS011;9194;42.632;23.298;2022-11-15T15:19:48;47.90;;;22.43;;
18136;SDS011;9194;42.632;23.298;2022-11-15T15:24:50;53.03;;;21.37;;
18136;SDS011;9194;42.632;23.298;2022-11-15T15:29:52;54.23;;;22.40;;
18136;SDS011;9194;42.632;23.298;2022-11-15T15:34:53;37.83;;;15.90;;
18136;SDS011;9194;42.632;23.298;2022-11-15T15:39:55;42.57;;;17.53;;
18136;SDS011;9194;42.632;23.298;2022-11-15T15:44:57;28.30;;;13.53;;
18136;SDS011;9194;42.632;23.298;2022-11-15T15:49:58;28.83;;;10.33;;
18136;SDS011;9194;42.632;23.298;2022-11-15T15:54:59;16.00;;;8.17;;
18136;SDS011;9194;42.632;23.298;2022-11-15T16:00:02;13.17;;;7.27;;
18136;SDS011;9194;42.632;23.298;2022-11-15T16:05:13;13.97;;;7.57;;
18136;SDS011;9194;42.632;23.298;2022-11-15T16:10:27;13.13;;;7.67;;
18136;SDS011;9194;42.632;23.298;2022-11-15T16:15:31;14.87;;;6.93;;
18136;SDS011;9194;42.632;23.298;2022-11-15T16:25:47;6.43;;;4.70;;
18136;SDS011;9194;42.632;23.298;2022-11-15T16:31:04;8.40;;;5.10;;
18136;SDS011;9194;42.632;23.298;2022-11-15T16:36:19;11.13;;;5.77;;
18136;SDS011;9194;42.632;23.298;2022-11-15T16:41:27;10.53;;;8.30;;
18136;SDS011;9194;42.632;23.298;2022-11-15T16:46:28;9.93;;;6.20;;
18136;SDS011;9194;42.632;23.298;2022-11-15T16:51:30;23.30;;;9.90;;
18136;SDS011;9194;42.632;23.298;2022-11-15T16:56:31;22.43;;;8.30;;
18136;SDS011;9194;42.632;23.298;2022-11-15T17:01:34;17.43;;;9.10;;
18136;SDS011;9194;42.632;23.298;2022-11-15T17:06:41;19.60;;;10.27;;
18136;SDS011;9194;42.632;23.298;2022-11-15T17:11:44;18.50;;;10.17;;
18136;SDS011;9194;42.632;23.298;2022-11-15T17:16:46;22.60;;;10.33;;
18136;SDS011;9194;42.632;23.298;2022-11-15T17:21:48;33.83;;;13.07;;
18136;SDS011;9194;42.632;23.298;2022-11-15T17:26:49;31.43;;;14.57;;
18136;SDS011;9194;42.632;23.298;2022-11-15T17:31:50;32.57;;;13.63;;
18136;SDS011;9194;42.632;23.298;2022-11-15T17:36:52;29.17;;;13.83;;
18136;SDS011;9194;42.632;23.298;2022-11-15T17:41:53;33.13;;;13.50;;
18136;SDS011;9194;42.632;23.298;2022-11-15T17:46:54;29.33;;;13.93;;
18136;SDS011;9194;42.632;23.298;2022-11-15T17:51:56;39.00;;;15.33;;
18136;SDS011;9194;42.632;23.298;2022-11-15T17:56:57;38.47;;;16.60;;
18136;SDS011;9194;42.632;23.298;2022-11-15T18:01:58;49.33;;;22.47;;
18136;SDS011;9194;42.632;23.298;2022-11-15T18:06:59;56.57;;;24.73;;
18136;SDS011;9194;42.632;23.298;2022-11-15T18:12:01;46.97;;;23.90;;
18136;SDS011;9194;42.632;23.298;2022-11-15T18:17:02;62.43;;;27.40;;
18136;SDS011;9194;42.632;23.298;2022-11-15T18:22:03;74.00;;;27.97;;
18136;SDS011;9194;42.632;23.298;2022-11-15T18:27:07;67.70;;;27.33;;
18136;SDS011;9194;42.632;23.298;2022-11-15T18:32:08;66.67;;;27.73;;
18136;SDS011;9194;42.632;23.298;2022-11-15T18:37:14;68.77;;;27.73;;
18136;SDS011;9194;42.632;23.298;2022-11-15T18:42:16;73.90;;;27.40;;
18136;SDS011;9194;42.632;23.298;2022-11-15T18:47:17;66.43;;;28.57;;
18136;SDS011;9194;42.632;23.298;2022-11-15T18:52:18;63.97;;;29.40;;
18136;SDS011;9194;42.632;23.298;2022-11-15T18:57:20;72.80;;;32.13;;
18136;SDS011;9194;42.632;23.298;2022-11-15T19:02:21;73.37;;;33.20;;
18136;SDS011;9194;42.632;23.298;2022-11-15T19:07:23;90.90;;;36.27;;
18136;SDS011;9194;42.632;23.298;2022-11-15T19:12:24;92.60;;;35.57;;
18136;SDS011;9194;42.632;23.298;2022-11-15T19:17:26;99.03;;;35.87;;
18136;SDS011;9194;42.632;23.298;2022-11-15T19:22:28;104.50;;;37.10;;
18136;SDS011;9194;42.632;23.298;2022-11-15T19:27:29;96.67;;;35.33;;
18136;SDS011;9194;42.632;23.298;2022-11-15T19:32:31;88.83;;;33.23;;
18136;SDS011;9194;42.632;23.298;2022-11-15T19:37:33;87.13;;;31.90;;
18136;SDS011;9194;42.632;23.298;2022-11-15T19:42:34;86.03;;;30.73;;
18136;SDS011;9194;42.632;23.298;2022-11-15T19:47:46;71.43;;;25.57;;
18136;SDS011;9194;42.632;23.298;2022-11-15T19:52:47;50.20;;;21.43;;
18136;SDS011;9194;42.632;23.298;2022-11-15T19:57:48;46.90;;;19.03;;
18136;SDS011;9194;42.632;23.298;2022-11-15T20:02:50;35.93;;;15.40;;
18136;SDS011;9194;42.632;23.298;2022-11-15T20:07:51;82.67;;;32.27;;
18136;SDS011;9194;42.632;23.298;2022-11-15T20:12:52;68.87;;;26.67;;
18136;SDS011;9194;42.632;23.298;2022-11-15T20:17:54;72.33;;;29.00;;
18136;SDS011;9194;42.632;23.298;2022-11-15T20:22:55;73.87;;;29.33;;
18136;SDS011;9194;42.632;23.298;2022-11-15T20:27:56;84.73;;;34.10;;
18136;SDS011;9194;42.632;23.298;2022-11-15T20:32:58;84.53;;;33.87;;
18136;SDS011;9194;42.632;23.298;2022-11-15T20:37:59;88.03;;;36.20;;
18136;SDS011;9194;42.632;23.298;2022-11-15T20:43:00;88.40;;;37.07;;
18136;SDS011;9194;42.632;23.298;2022-11-15T20:48:02;94.83;;;37.23;;
18136;SDS011;9194;42.632;23.298;2022-11-15T20:53:03;89.97;;;34.50;;
18136;SDS011;9194;42.632;23.298;2022-11-15T20:58:05;89.27;;;34.80;;
18136;SDS011;9194;42.632;23.298;2022-11-15T21:03:06;84.23;;;32.87;;
18136;SDS011;9194;42.632;23.298;2022-11-15T21:08:08;94.93;;;34.37;;
18136;SDS011;9194;42.632;23.298;2022-11-15T21:13:10;88.10;;;34.93;;
18136;SDS011;9194;42.632;23.298;2022-11-15T21:18:11;80.83;;;32.40;;
18136;SDS011;9194;42.632;23.298;2022-11-15T21:23:13;86.13;;;34.33;;
18136;SDS011;9194;42.632;23.298;2022-11-15T21:28:15;94.80;;;32.73;;
18136;SDS011;9194;42.632;23.298;2022-11-15T21:33:17;75.93;;;30.20;;
18136;SDS011;9194;42.632;23.298;2022-11-15T21:38:18;67.27;;;27.37;;
18136;SDS011;9194;42.632;23.298;2022-11-15T21:43:19;56.67;;;20.17;;
18136;SDS011;9194;42.632;23.298;2022-11-15T21:48:21;44.60;;;17.63;;
18136;SDS011;9194;42.632;23.298;2022-11-15T21:53:23;33.83;;;15.67;;
18136;SDS011;9194;42.632;23.298;2022-11-15T21:58:25;76.00;;;27.27;;
18136;SDS011;9194;42.632;23.298;2022-11-15T22:03:27;50.43;;;19.80;;
18136;SDS011;9194;42.632;23.298;2022-11-15T22:08:28;71.30;;;31.10;;
18136;SDS011;9194;42.632;23.298;2022-11-15T22:13:30;75.47;;;24.57;;
18136;SDS011;9194;42.632;23.298;2022-11-15T22:18:32;75.40;;;28.77;;
18136;SDS011;9194;42.632;23.298;2022-11-15T22:23:33;69.93;;;29.50;;
18136;SDS011;9194;42.632;23.298;2022-11-15T22:28:35;82.43;;;30.10;;
18136;SDS011;9194;42.632;23.298;2022-11-15T22:33:36;70.73;;;30.00;;
18136;SDS011;9194;42.632;23.298;2022-11-15T22:38:38;77.23;;;30.63;;
18136;SDS011;9194;42.632;23.298;2022-11-15T22:43:39;77.50;;;29.97;;
18136;SDS011;9194;42.632;23.298;2022-11-15T22:48:41;115.77;;;37.77;;
18136;SDS011;9194;42.632;23.298;2022-11-15T22:53:42;101.60;;;35.93;;
18136;SDS011;9194;42.632;23.298;2022-11-15T22:58:43;86.13;;;32.57;;
18136;SDS011;9194;42.632;23.298;2022-11-15T23:03:45;74.13;;;29.20;;
18136;SDS011;9194;42.632;23.298;2022-11-15T23:08:46;65.47;;;27.93;;
18136;SDS011;9194;42.632;23.298;2022-11-15T23:13:51;76.20;;;29.90;;
18136;SDS011;9194;42.632;23.298;2022-11-15T23:18:56;75.43;;;29.70;;
18136;SDS011;9194;42.632;23.298;2022-11-15T23:23:58;89.53;;;32.37;;
18136;SDS011;9194;42.632;23.298;2022-11-15T23:28:59;89.40;;;32.97;;
18136;SDS011;9194;42.632;23.298;2022-11-15T23:34:01;75.30;;;30.60;;
18136;SDS011;9194;42.632;23.298;2022-11-15T23:39:02;55.77;;;23.90;;
18136;SDS011;9194;42.632;23.298;2022-11-15T23:44:04;82.83;;;30.73;;
18136;SDS011;9194;42.632;23.298;2022-11-15T23:49:05;95.30;;;35.60;;
18136;SDS011;9194;42.632;23.298;2022-11-15T23:54:06;105.77;;;38.50;;
18136;SDS011;9194;42.632;23.298;2022-11-15T23:59:08;99.93;;;37.97;;
